MGGT/GUA METAR and TAF weather

Enter ICAO airport designator
Station Type Date Time Source
MGGT METAR 2021/05/15 23:00 UTC NOAA

MGGT 152300Z 02014KT 9999 FEW018TCU BKN090 21/17 Q1023 A3021 TCU WSW/NNW CB DIST SW


Station Type Date Time Source
MGGT Decoded METAR 2021/05/15 23:00 UTC NOAA

Guatemala Aeropuertola Aurora , Guatemala (MGGT) 14-35N 090-31W 1489M
May 15, 2021 - 07:00 PM EDT / 2021.05.15 2300 UTC
Wind: from the NNE (020 degrees) at 16 MPH (14 KT):0
Visibility: greater than 7 mile(s):0
Sky conditions: mostly cloudy
Weather: Cumulonimbus clouds, towering cumulus clouds observed
Temperature: 69 F (21 C)
Dew Point: 62 F (17 C)
Relative Humidity: 77%
Pressure (altimeter): 30.21 in. Hg (1023 hPa)
ob: MGGT 152300Z 02014KT 9999 FEW018TCU BKN090 21/17 Q1023 A3021 TCU WSW/NNW CB DIST SW
cycle: 23

Station Type Date Time Source
MGGT TAF 2021/05/15 18:18 UTC NOAA

TAF TAF MGGT 151700Z 1518/1618 02012KT 9999 SCT018 TX26/1520Z TN17/1612Z PROB40
TEMPO 1520/1604 04008KT 8000 RADZ BKN018 PROB30 1522/1602 TS FEW025CB
BECMG 1600/1602 36010KT BKN016
TEMPO 1606/1616 03006KT 6000 SCT012
BECMG 1616/1618 18008KT FEW018

Example: see airport list